createdAt,value
2019-01-11T00:01:41.676Z,1.80
2019-01-11T00:07:11.284Z,2.07
2019-01-11T00:12:40.718Z,1.50
2019-01-11T00:18:10.251Z,1.40
2019-01-11T00:23:39.695Z,1.23
2019-01-11T00:29:09.256Z,1.63
2019-01-11T00:34:40.696Z,1.70
2019-01-11T00:40:16.135Z,1.70
2019-01-11T00:45:45.542Z,1.83
2019-01-11T00:51:14.970Z,1.80
2019-01-11T00:56:44.466Z,1.70
2019-01-11T01:02:13.964Z,2.20
2019-01-11T01:07:43.495Z,1.63
2019-01-11T01:13:13.151Z,1.90
2019-01-11T01:18:42.672Z,2.20
2019-01-11T01:24:12.198Z,2.10
2019-01-11T01:29:41.791Z,1.87
2019-01-11T01:35:11.452Z,1.87
2019-01-11T01:40:40.895Z,1.87
2019-01-11T01:46:12.950Z,2.53
2019-01-11T01:51:42.456Z,2.20
2019-01-11T01:57:12.011Z,1.90
2019-01-11T02:02:41.563Z,1.90
2019-01-11T02:08:10.918Z,2.03
2019-01-11T02:13:41.519Z,1.63
2019-01-11T02:19:10.948Z,1.47
2019-01-11T02:24:40.726Z,1.63
2019-01-11T02:30:23.263Z,1.33
2019-01-11T02:35:52.957Z,1.30
2019-01-11T02:41:24.248Z,1.37
2019-01-11T02:46:59.845Z,1.43
2019-01-11T02:52:29.277Z,1.57
2019-01-11T02:57:59.724Z,1.47
2019-01-11T03:03:29.288Z,1.13
2019-01-11T03:08:58.669Z,1.27
2019-01-11T03:14:28.120Z,1.40
2019-01-11T03:19:57.619Z,1.50
2019-01-11T03:25:29.067Z,1.30
2019-01-11T03:31:00.323Z,1.23
2019-01-11T03:36:29.815Z,1.33
2019-01-11T03:42:00.778Z,1.70
2019-01-11T03:47:30.150Z,1.63
2019-01-11T03:53:00.581Z,1.30
2019-01-11T03:58:30.413Z,1.73
2019-01-11T04:04:01.970Z,1.73
2019-01-11T04:09:31.457Z,2.23
2019-01-11T04:15:00.905Z,1.57
2019-01-11T04:20:30.227Z,1.80
2019-01-11T04:25:59.770Z,2.27
2019-01-11T04:31:29.237Z,2.33
2019-01-11T04:36:58.675Z,2.13
2019-01-11T04:42:30.168Z,2.77
2019-01-11T04:47:59.703Z,1.90
2019-01-11T04:53:29.194Z,2.00
2019-01-11T04:58:58.531Z,2.30
2019-01-11T05:04:27.958Z,2.37
2019-01-11T05:09:57.469Z,2.27
2019-01-11T05:15:26.916Z,2.90
2019-01-11T05:20:56.360Z,3.00
2019-01-11T05:26:25.888Z,2.50
2019-01-11T05:31:55.508Z,2.50
2019-01-11T05:37:24.906Z,3.27
2019-01-11T05:42:54.355Z,2.33
2019-01-11T05:48:23.794Z,2.90
2019-01-11T05:53:53.164Z,2.80
2019-01-11T05:59:22.525Z,2.93
2019-01-11T06:04:53.353Z,3.30
2019-01-11T06:10:22.669Z,3.20
2019-01-11T06:15:53.111Z,3.50
2019-01-11T06:21:22.451Z,3.17
2019-01-11T06:26:52.778Z,2.60
2019-01-11T06:32:22.084Z,2.87
2019-01-11T06:37:51.398Z,2.63
2019-01-11T06:43:20.781Z,2.50
2019-01-11T06:48:50.149Z,3.00
2019-01-11T06:54:19.524Z,2.57
2019-01-11T06:59:48.921Z,3.67
2019-01-11T07:05:18.311Z,2.80
2019-01-11T07:10:47.731Z,3.20
2019-01-11T07:16:17.060Z,3.20
2019-01-11T07:21:46.381Z,2.87
2019-01-11T07:27:15.835Z,2.53
2019-01-11T07:32:45.329Z,2.70
2019-01-11T07:38:14.666Z,2.70
2019-01-11T07:43:44.076Z,3.53
2019-01-11T07:49:13.536Z,3.73
2019-01-11T07:54:42.938Z,3.43
2019-01-11T08:00:13.945Z,3.03
2019-01-11T08:05:43.442Z,3.07
2019-01-11T08:11:21.627Z,4.00
2019-01-11T08:16:51.755Z,2.97
2019-01-11T08:22:25.468Z,2.77
2019-01-11T08:27:56.958Z,3.13
2019-01-11T08:33:26.390Z,2.47
2019-01-11T08:38:55.778Z,2.70
2019-01-11T08:44:25.175Z,3.70
2019-01-11T08:49:54.512Z,2.77
2019-01-11T08:55:23.963Z,2.00
2019-01-11T09:00:53.295Z,2.47
2019-01-11T09:06:22.716Z,1.90
2019-01-11T09:11:52.100Z,2.40
2019-01-11T09:17:21.862Z,1.90
2019-01-11T09:22:51.172Z,1.93
2019-01-11T09:28:20.483Z,2.20
2019-01-11T09:33:49.799Z,2.77
2019-01-11T09:39:19.126Z,3.00
2019-01-11T09:44:48.653Z,3.03
2019-01-11T09:50:18.047Z,3.37
2019-01-11T09:55:49.505Z,3.67
2019-01-11T10:01:18.977Z,3.17
2019-01-11T10:06:49.968Z,3.40
2019-01-11T10:12:19.277Z,3.90
2019-01-11T10:17:50.458Z,3.13
2019-01-11T10:23:19.952Z,3.40
2019-01-11T10:28:52.529Z,3.67
2019-01-11T10:34:21.929Z,3.63
2019-01-11T10:39:51.336Z,4.20
2019-01-11T10:45:22.635Z,3.17
2019-01-11T10:50:52.144Z,3.20
2019-01-11T10:56:23.043Z,2.50
2019-01-11T11:01:52.447Z,3.23
2019-01-11T11:07:21.928Z,1.67
2019-01-11T11:12:55.862Z,2.90
2019-01-11T11:18:25.472Z,3.70
2019-01-11T11:23:54.816Z,3.70
2019-01-11T11:29:30.206Z,3.33
2019-01-11T11:34:59.120Z,3.80
2019-01-11T11:40:34.694Z,4.33
2019-01-11T11:46:06.581Z,3.63
2019-01-11T11:51:41.222Z,3.60
2019-01-11T11:57:09.168Z,3.33
2019-01-11T12:02:40.666Z,4.10
2019-01-11T12:08:10.202Z,3.10
2019-01-11T12:13:39.579Z,3.17
2019-01-11T12:19:09.080Z,2.83
2019-01-11T12:24:38.568Z,3.40
2019-01-11T12:30:14.609Z,3.13
2019-01-11T12:35:43.925Z,2.67
2019-01-11T12:41:13.634Z,2.60
2019-01-11T12:46:43.064Z,2.80
2019-01-11T12:52:12.477Z,2.20
2019-01-11T12:57:41.997Z,1.90
2019-01-11T13:03:11.475Z,3.10
2019-01-11T13:08:41.947Z,2.53
2019-01-11T13:14:11.439Z,2.70
2019-01-11T13:19:40.903Z,3.97
2019-01-11T13:25:10.733Z,3.37
2019-01-11T13:30:40.308Z,3.13
2019-01-11T13:36:11.799Z,3.60
2019-01-11T13:41:41.354Z,5.60
2019-01-11T13:47:10.976Z,3.03
2019-01-11T13:52:40.409Z,4.77
2019-01-11T13:58:09.975Z,3.73
2019-01-11T14:03:39.573Z,3.73
2019-01-11T14:09:11.926Z,3.13
2019-01-11T14:14:41.647Z,2.70
2019-01-11T14:20:12.521Z,4.70
2019-01-11T14:25:41.978Z,4.60
2019-01-11T14:31:11.366Z,5.13
2019-01-11T14:36:40.881Z,3.57
2019-01-11T14:42:15.389Z,3.50
2019-01-11T14:47:49.875Z,3.57
2019-01-11T14:53:19.388Z,4.00
2019-01-11T14:58:48.837Z,3.30
2019-01-11T15:04:18.241Z,4.80
2019-01-11T15:09:48.509Z,4.27
2019-01-11T15:15:17.923Z,3.63
2019-01-11T15:20:47.658Z,4.10
2019-01-11T15:26:17.043Z,2.63
2019-01-11T15:31:46.418Z,5.33
2019-01-11T15:37:15.826Z,5.57
2019-01-11T15:42:45.198Z,6.30
2019-01-11T15:48:16.793Z,6.30
2019-01-11T15:53:46.417Z,6.40
2019-01-11T15:59:15.833Z,5.03
2019-01-11T16:04:45.279Z,4.33
2019-01-11T16:10:20.432Z,5.23
2019-01-11T16:15:54.525Z,5.40
2019-01-11T16:21:24.033Z,5.20
2019-01-11T16:26:53.437Z,4.37
2019-01-11T16:32:36.579Z,4.13
2019-01-11T16:38:06.133Z,3.90
2019-01-11T16:43:42.605Z,4.03
2019-01-11T16:49:11.935Z,2.70
2019-01-11T16:54:41.300Z,3.37
2019-01-11T17:00:19.583Z,3.97
2019-01-11T17:05:49.640Z,2.83
2019-01-11T17:11:19.235Z,4.10
2019-01-11T17:16:48.849Z,4.77
2019-01-11T17:22:18.327Z,3.70
2019-01-11T17:27:47.838Z,3.80
2019-01-11T17:33:17.260Z,4.80
2019-01-11T17:38:46.870Z,2.80
2019-01-11T17:44:17.506Z,3.80
2019-01-11T17:49:46.848Z,3.70
2019-01-11T17:55:16.405Z,3.77
2019-01-11T18:00:45.935Z,3.20
2019-01-11T18:06:15.522Z,3.47
2019-01-11T18:11:44.937Z,2.10
2019-01-11T18:17:14.473Z,2.87
2019-01-11T18:22:44.100Z,2.83
2019-01-11T18:28:13.434Z,2.90
2019-01-11T18:33:42.958Z,3.40
2019-01-11T18:39:12.404Z,2.20
2019-01-11T18:44:41.901Z,1.90
2019-01-11T18:50:20.117Z,2.50
2019-01-11T18:56:05.624Z,2.73
2019-01-11T19:01:41.069Z,2.23
2019-01-11T19:07:10.687Z,2.13
2019-01-11T19:12:40.252Z,1.57
2019-01-11T19:18:09.974Z,2.20
2019-01-11T19:23:39.455Z,2.20
2019-01-11T19:29:09.010Z,2.23
2019-01-11T19:34:38.504Z,1.80
2019-01-11T19:40:14.890Z,2.20
2019-01-11T19:45:44.543Z,2.30
2019-01-11T19:51:14.119Z,2.50
2019-01-11T19:56:44.808Z,2.77
2019-01-11T20:02:14.352Z,2.90
2019-01-11T20:07:43.879Z,2.50
2019-01-11T20:13:13.500Z,2.50
2019-01-11T20:18:44.079Z,2.40
2019-01-11T20:24:13.586Z,1.80
2019-01-11T20:29:43.192Z,3.30
2019-01-11T20:35:13.008Z,2.60
2019-01-11T20:40:42.575Z,2.37
2019-01-11T20:46:12.200Z,2.50
2019-01-11T20:51:41.701Z,2.57
2019-01-11T20:57:11.372Z,2.90
2019-01-11T21:02:40.801Z,2.07
2019-01-11T21:08:12.559Z,2.67
2019-01-11T21:13:42.038Z,2.90
2019-01-11T21:19:12.714Z,2.60
2019-01-11T21:24:42.234Z,3.60
2019-01-11T21:30:21.396Z,2.93
2019-01-11T21:35:51.124Z,3.70
2019-01-11T21:41:20.581Z,3.30
2019-01-11T21:46:54.693Z,3.50
2019-01-11T21:52:24.148Z,3.03
2019-01-11T21:57:53.792Z,3.10
2019-01-11T22:03:23.240Z,2.57
2019-01-11T22:08:52.857Z,4.17
2019-01-11T22:14:22.238Z,4.17
2019-01-11T22:19:51.709Z,2.87
2019-01-11T22:25:21.354Z,2.83
2019-01-11T22:30:50.937Z,2.53
2019-01-11T22:36:20.408Z,2.90
2019-01-11T22:41:49.977Z,3.43
2019-01-11T22:47:19.399Z,3.13
2019-01-11T22:52:48.860Z,2.50
2019-01-11T22:58:18.516Z,3.70
2019-01-11T23:03:49.888Z,3.27
2019-01-11T23:09:19.923Z,3.00
2019-01-11T23:14:50.775Z,4.42
2019-01-11T23:20:22.314Z,3.83
2019-01-11T23:25:51.785Z,3.60
2019-01-11T23:31:21.384Z,3.10
2019-01-11T23:36:50.935Z,3.37
2019-01-11T23:42:20.366Z,2.90
2019-01-11T23:47:49.735Z,3.17
2019-01-11T23:53:19.335Z,3.30
2019-01-11T23:58:49.727Z,3.60
